Grafton, Vermont
Current Conditions -  °F | °C
As of 11:55 AM on Friday 28 Nov 2014 (Local Time) from KEEN Reporting Station
Broken Clouds Broken Clouds  
Wind Chill: 21°   Ceiling: 3300
Heat Index: 28°   Visibility: 10mi
Dew Point: 21°   Wind: 7mph
Humidity: 74%   Direction: 360°N
Pressure: 30.07"   Gusts: NA
Location:  43.17°N, 72.61°W
Report Text: KEEN 281655Z AUTO 36006KT 10SM SCT028 BKN033 M02/M06 A3007 RMK AO1 P0001
Loading
Personal Weather Stations






























Interactive Weather Map New forecast layout! Learn more

10-Day Weather Forecast

Advertisements
Track Severe Weather on mobile